sensor_id;sensor_type;location;lat;lon;timestamp;P1;durP1;ratioP1;P2;durP2;ratioP2
58152;SDS011;43967;51.634;5.566;2022-11-03T00:00:40;9.27;;;1.80;;
58152;SDS011;43967;51.634;5.566;2022-11-03T00:05:41;11.77;;;2.10;;
58152;SDS011;43967;51.634;5.566;2022-11-03T00:10:42;6.73;;;1.80;;
58152;SDS011;43967;51.634;5.566;2022-11-03T00:15:47;11.13;;;2.10;;
58152;SDS011;43967;51.634;5.566;2022-11-03T00:20:55;9.88;;;2.22;;
58152;SDS011;43967;51.634;5.566;2022-11-03T00:26:05;8.10;;;1.80;;
58152;SDS011;43967;51.634;5.566;2022-11-03T00:31:12;9.33;;;1.87;;
58152;SDS011;43967;51.634;5.566;2022-11-03T00:36:16;7.80;;;1.60;;
58152;SDS011;43967;51.634;5.566;2022-11-03T00:41:19;10.55;;;2.30;;
58152;SDS011;43967;51.634;5.566;2022-11-03T00:46:21;9.90;;;2.20;;
58152;SDS011;43967;51.634;5.566;2022-11-03T00:51:27;8.00;;;2.08;;
58152;SDS011;43967;51.634;5.566;2022-11-03T00:56:30;8.63;;;1.88;;
58152;SDS011;43967;51.634;5.566;2022-11-03T01:01:34;8.60;;;1.70;;
58152;SDS011;43967;51.634;5.566;2022-11-03T01:06:41;8.30;;;2.20;;
58152;SDS011;43967;51.634;5.566;2022-11-03T01:11:49;7.82;;;2.08;;
58152;SDS011;43967;51.634;5.566;2022-11-03T01:17:07;6.72;;;1.90;;
58152;SDS011;43967;51.634;5.566;2022-11-03T01:22:12;7.00;;;1.80;;
58152;SDS011;43967;51.634;5.566;2022-11-03T01:27:15;7.45;;;2.20;;
58152;SDS011;43967;51.634;5.566;2022-11-03T01:32:17;7.75;;;1.98;;
58152;SDS011;43967;51.634;5.566;2022-11-03T01:37:19;7.30;;;1.70;;
58152;SDS011;43967;51.634;5.566;2022-11-03T01:42:20;8.52;;;1.80;;
58152;SDS011;43967;51.634;5.566;2022-11-03T01:47:25;8.27;;;2.33;;
58152;SDS011;43967;51.634;5.566;2022-11-03T01:52:35;9.17;;;2.00;;
58152;SDS011;43967;51.634;5.566;2022-11-03T01:57:40;7.70;;;2.00;;
58152;SDS011;43967;51.634;5.566;2022-11-03T02:02:49;7.35;;;1.75;;
58152;SDS011;43967;51.634;5.566;2022-11-03T02:12:58;7.00;;;1.80;;
58152;SDS011;43967;51.634;5.566;2022-11-03T02:17:59;8.38;;;1.73;;
58152;SDS011;43967;51.634;5.566;2022-11-03T02:28:18;8.30;;;1.87;;
58152;SDS011;43967;51.634;5.566;2022-11-03T02:33:29;7.25;;;1.70;;
58152;SDS011;43967;51.634;5.566;2022-11-03T02:38:44;8.10;;;1.98;;
58152;SDS011;43967;51.634;5.566;2022-11-03T02:43:54;7.27;;;2.10;;
58152;SDS011;43967;51.634;5.566;2022-11-03T02:48:57;7.47;;;1.70;;
58152;SDS011;43967;51.634;5.566;2022-11-03T02:54:03;6.32;;;1.70;;
58152;SDS011;43967;51.634;5.566;2022-11-03T02:59:14;6.35;;;1.73;;
58152;SDS011;43967;51.634;5.566;2022-11-03T03:04:27;8.43;;;1.60;;
58152;SDS011;43967;51.634;5.566;2022-11-03T03:09:34;6.57;;;1.50;;
58152;SDS011;43967;51.634;5.566;2022-11-03T03:14:40;6.75;;;1.60;;
58152;SDS011;43967;51.634;5.566;2022-11-03T03:19:48;8.43;;;2.27;;
58152;SDS011;43967;51.634;5.566;2022-11-03T03:25:33;6.43;;;1.70;;
58152;SDS011;43967;51.634;5.566;2022-11-03T03:30:41;6.60;;;1.42;;
58152;SDS011;43967;51.634;5.566;2022-11-03T03:35:45;5.60;;;1.67;;
58152;SDS011;43967;51.634;5.566;2022-11-03T03:40:50;6.43;;;1.77;;
58152;SDS011;43967;51.634;5.566;2022-11-03T03:45:54;6.30;;;1.67;;
58152;SDS011;43967;51.634;5.566;2022-11-03T03:51:00;8.75;;;1.80;;
58152;SDS011;43967;51.634;5.566;2022-11-03T03:56:02;5.00;;;1.30;;
58152;SDS011;43967;51.634;5.566;2022-11-03T04:01:03;8.10;;;2.10;;
58152;SDS011;43967;51.634;5.566;2022-11-03T04:06:04;6.38;;;1.67;;
58152;SDS011;43967;51.634;5.566;2022-11-03T04:11:05;7.40;;;1.60;;
58152;SDS011;43967;51.634;5.566;2022-11-03T04:16:07;6.78;;;1.70;;
58152;SDS011;43967;51.634;5.566;2022-11-03T04:21:12;6.07;;;1.50;;
58152;SDS011;43967;51.634;5.566;2022-11-03T04:26:14;7.70;;;1.70;;
58152;SDS011;43967;51.634;5.566;2022-11-03T04:31:17;6.60;;;1.77;;
58152;SDS011;43967;51.634;5.566;2022-11-03T04:36:23;7.63;;;2.00;;
58152;SDS011;43967;51.634;5.566;2022-11-03T04:41:28;7.25;;;1.50;;
58152;SDS011;43967;51.634;5.566;2022-11-03T04:46:31;6.27;;;1.60;;
58152;SDS011;43967;51.634;5.566;2022-11-03T04:51:32;6.65;;;1.60;;
58152;SDS011;43967;51.634;5.566;2022-11-03T04:56:34;6.30;;;1.35;;
58152;SDS011;43967;51.634;5.566;2022-11-03T05:01:35;6.37;;;1.80;;
58152;SDS011;43967;51.634;5.566;2022-11-03T05:06:36;6.50;;;1.70;;
58152;SDS011;43967;51.634;5.566;2022-11-03T05:11:40;6.88;;;1.58;;
58152;SDS011;43967;51.634;5.566;2022-11-03T05:16:43;7.07;;;1.50;;
58152;SDS011;43967;51.634;5.566;2022-11-03T05:21:45;6.40;;;1.60;;
58152;SDS011;43967;51.634;5.566;2022-11-03T05:26:47;7.38;;;1.80;;
58152;SDS011;43967;51.634;5.566;2022-11-03T05:31:49;6.10;;;1.42;;
58152;SDS011;43967;51.634;5.566;2022-11-03T05:36:52;6.53;;;1.30;;
58152;SDS011;43967;51.634;5.566;2022-11-03T05:41:54;7.10;;;1.83;;
58152;SDS011;43967;51.634;5.566;2022-11-03T05:46:56;5.97;;;1.35;;
58152;SDS011;43967;51.634;5.566;2022-11-03T05:51:58;6.67;;;1.50;;
58152;SDS011;43967;51.634;5.566;2022-11-03T05:57:00;5.68;;;1.35;;
58152;SDS011;43967;51.634;5.566;2022-11-03T06:02:01;7.38;;;1.70;;
58152;SDS011;43967;51.634;5.566;2022-11-03T06:07:14;6.00;;;1.60;;
58152;SDS011;43967;51.634;5.566;2022-11-03T06:12:22;7.47;;;1.70;;
58152;SDS011;43967;51.634;5.566;2022-11-03T06:17:25;7.43;;;1.83;;
58152;SDS011;43967;51.634;5.566;2022-11-03T06:22:28;5.63;;;1.30;;
58152;SDS011;43967;51.634;5.566;2022-11-03T06:27:38;6.10;;;1.40;;
58152;SDS011;43967;51.634;5.566;2022-11-03T06:32:40;6.75;;;2.00;;
58152;SDS011;43967;51.634;5.566;2022-11-03T06:37:41;6.18;;;1.70;;
58152;SDS011;43967;51.634;5.566;2022-11-03T06:42:42;6.47;;;1.63;;
58152;SDS011;43967;51.634;5.566;2022-11-03T06:47:44;7.60;;;1.75;;
58152;SDS011;43967;51.634;5.566;2022-11-03T06:52:45;7.82;;;1.90;;
58152;SDS011;43967;51.634;5.566;2022-11-03T06:57:49;9.20;;;1.80;;
58152;SDS011;43967;51.634;5.566;2022-11-03T07:13:31;9.70;;;1.90;;
58152;SDS011;43967;51.634;5.566;2022-11-03T07:18:34;7.03;;;1.80;;
58152;SDS011;43967;51.634;5.566;2022-11-03T07:23:40;7.15;;;1.75;;
58152;SDS011;43967;51.634;5.566;2022-11-03T07:28:41;8.45;;;1.73;;
58152;SDS011;43967;51.634;5.566;2022-11-03T07:33:42;7.40;;;1.40;;
58152;SDS011;43967;51.634;5.566;2022-11-03T07:38:44;8.50;;;1.90;;
58152;SDS011;43967;51.634;5.566;2022-11-03T07:43:49;7.65;;;1.55;;
58152;SDS011;43967;51.634;5.566;2022-11-03T07:48:58;8.40;;;1.60;;
58152;SDS011;43967;51.634;5.566;2022-11-03T07:54:02;12.17;;;1.70;;
58152;SDS011;43967;51.634;5.566;2022-11-03T07:59:05;8.05;;;1.60;;
58152;SDS011;43967;51.634;5.566;2022-11-03T08:04:25;10.50;;;1.92;;
58152;SDS011;43967;51.634;5.566;2022-11-03T08:09:30;9.50;;;1.80;;
58152;SDS011;43967;51.634;5.566;2022-11-03T08:14:31;9.15;;;1.80;;
58152;SDS011;43967;51.634;5.566;2022-11-03T08:19:32;7.97;;;1.92;;
58152;SDS011;43967;51.634;5.566;2022-11-03T08:24:33;8.83;;;1.63;;
58152;SDS011;43967;51.634;5.566;2022-11-03T08:29:35;8.73;;;1.63;;
58152;SDS011;43967;51.634;5.566;2022-11-03T08:34:36;7.80;;;1.90;;
58152;SDS011;43967;51.634;5.566;2022-11-03T08:39:37;9.30;;;1.80;;
58152;SDS011;43967;51.634;5.566;2022-11-03T08:44:38;7.10;;;1.63;;
58152;SDS011;43967;51.634;5.566;2022-11-03T08:49:39;7.88;;;1.70;;
58152;SDS011;43967;51.634;5.566;2022-11-03T08:54:40;5.90;;;1.50;;
58152;SDS011;43967;51.634;5.566;2022-11-03T08:59:41;7.70;;;1.93;;
58152;SDS011;43967;51.634;5.566;2022-11-03T09:04:42;9.38;;;2.08;;
58152;SDS011;43967;51.634;5.566;2022-11-03T09:09:43;6.85;;;1.80;;
58152;SDS011;43967;51.634;5.566;2022-11-03T09:14:44;6.53;;;1.90;;
58152;SDS011;43967;51.634;5.566;2022-11-03T09:19:45;7.22;;;1.60;;
58152;SDS011;43967;51.634;5.566;2022-11-03T09:24:46;6.97;;;1.65;;
58152;SDS011;43967;51.634;5.566;2022-11-03T09:29:47;8.33;;;1.90;;
58152;SDS011;43967;51.634;5.566;2022-11-03T09:34:48;6.77;;;1.80;;
58152;SDS011;43967;51.634;5.566;2022-11-03T09:39:50;7.45;;;2.00;;
58152;SDS011;43967;51.634;5.566;2022-11-03T09:44:51;7.05;;;1.80;;
58152;SDS011;43967;51.634;5.566;2022-11-03T09:49:54;6.07;;;1.20;;
58152;SDS011;43967;51.634;5.566;2022-11-03T09:54:57;7.97;;;1.58;;
58152;SDS011;43967;51.634;5.566;2022-11-03T09:59:58;8.45;;;1.98;;
58152;SDS011;43967;51.634;5.566;2022-11-03T10:04:59;6.70;;;1.70;;
58152;SDS011;43967;51.634;5.566;2022-11-03T10:10:01;7.00;;;1.55;;
58152;SDS011;43967;51.634;5.566;2022-11-03T10:15:04;6.70;;;1.60;;
58152;SDS011;43967;51.634;5.566;2022-11-03T10:20:13;7.57;;;1.87;;
58152;SDS011;43967;51.634;5.566;2022-11-03T10:30:27;6.07;;;1.63;;
58152;SDS011;43967;51.634;5.566;2022-11-03T10:35:34;6.63;;;1.65;;
58152;SDS011;43967;51.634;5.566;2022-11-03T10:40:35;5.73;;;1.37;;
58152;SDS011;43967;51.634;5.566;2022-11-03T10:45:37;6.65;;;1.70;;
58152;SDS011;43967;51.634;5.566;2022-11-03T10:50:38;5.85;;;1.42;;
58152;SDS011;43967;51.634;5.566;2022-11-03T10:55:40;6.60;;;1.70;;
58152;SDS011;43967;51.634;5.566;2022-11-03T11:00:41;6.07;;;1.65;;
58152;SDS011;43967;51.634;5.566;2022-11-03T11:05:43;6.05;;;1.73;;
58152;SDS011;43967;51.634;5.566;2022-11-03T11:10:45;6.10;;;1.77;;
58152;SDS011;43967;51.634;5.566;2022-11-03T11:15:47;6.80;;;1.77;;
58152;SDS011;43967;51.634;5.566;2022-11-03T11:20:49;6.32;;;1.73;;
58152;SDS011;43967;51.634;5.566;2022-11-03T11:58:13;6.22;;;1.58;;
58152;SDS011;43967;51.634;5.566;2022-11-03T12:03:37;6.43;;;1.83;;
58152;SDS011;43967;51.634;5.566;2022-11-03T12:08:42;6.10;;;1.70;;
58152;SDS011;43967;51.634;5.566;2022-11-03T12:13:45;6.05;;;1.60;;
58152;SDS011;43967;51.634;5.566;2022-11-03T12:18:47;6.20;;;1.85;;
58152;SDS011;43967;51.634;5.566;2022-11-03T12:23:49;5.13;;;1.40;;
58152;SDS011;43967;51.634;5.566;2022-11-03T12:28:50;6.20;;;1.55;;
58152;SDS011;43967;51.634;5.566;2022-11-03T12:33:51;5.38;;;1.50;;
58152;SDS011;43967;51.634;5.566;2022-11-03T12:38:52;6.73;;;1.60;;
58152;SDS011;43967;51.634;5.566;2022-11-03T12:43:53;6.40;;;1.40;;
58152;SDS011;43967;51.634;5.566;2022-11-03T12:48:54;6.18;;;1.50;;
58152;SDS011;43967;51.634;5.566;2022-11-03T12:53:55;5.90;;;1.83;;
58152;SDS011;43967;51.634;5.566;2022-11-03T12:58:56;5.73;;;1.63;;
58152;SDS011;43967;51.634;5.566;2022-11-03T13:03:58;6.57;;;1.60;;
58152;SDS011;43967;51.634;5.566;2022-11-03T13:08:59;4.78;;;1.38;;
58152;SDS011;43967;51.634;5.566;2022-11-03T13:14:00;5.20;;;1.43;;
58152;SDS011;43967;51.634;5.566;2022-11-03T13:19:01;5.32;;;1.63;;
58152;SDS011;43967;51.634;5.566;2022-11-03T13:24:02;7.70;;;1.92;;
58152;SDS011;43967;51.634;5.566;2022-11-03T13:29:03;6.33;;;1.80;;
58152;SDS011;43967;51.634;5.566;2022-11-03T13:34:04;6.25;;;1.65;;
58152;SDS011;43967;51.634;5.566;2022-11-03T13:39:05;5.20;;;1.45;;
58152;SDS011;43967;51.634;5.566;2022-11-03T13:44:06;6.17;;;1.80;;
58152;SDS011;43967;51.634;5.566;2022-11-03T13:49:08;7.07;;;1.60;;
58152;SDS011;43967;51.634;5.566;2022-11-03T13:54:09;5.70;;;1.50;;
58152;SDS011;43967;51.634;5.566;2022-11-03T13:59:10;7.68;;;1.88;;
58152;SDS011;43967;51.634;5.566;2022-11-03T14:04:11;8.00;;;1.30;;
58152;SDS011;43967;51.634;5.566;2022-11-03T14:09:12;6.47;;;1.60;;
58152;SDS011;43967;51.634;5.566;2022-11-03T14:14:13;4.65;;;1.20;;
58152;SDS011;43967;51.634;5.566;2022-11-03T14:19:14;8.27;;;1.90;;
58152;SDS011;43967;51.634;5.566;2022-11-03T14:24:15;7.40;;;1.55;;
58152;SDS011;43967;51.634;5.566;2022-11-03T14:29:16;7.15;;;1.83;;
58152;SDS011;43967;51.634;5.566;2022-11-03T14:34:18;6.43;;;1.73;;
58152;SDS011;43967;51.634;5.566;2022-11-03T14:39:19;6.63;;;1.77;;
58152;SDS011;43967;51.634;5.566;2022-11-03T14:44:20;7.05;;;2.20;;
58152;SDS011;43967;51.634;5.566;2022-11-03T14:49:21;7.72;;;1.80;;
58152;SDS011;43967;51.634;5.566;2022-11-03T14:54:23;7.40;;;1.60;;
58152;SDS011;43967;51.634;5.566;2022-11-03T14:59:24;8.80;;;2.08;;
58152;SDS011;43967;51.634;5.566;2022-11-03T15:04:26;8.80;;;1.63;;
58152;SDS011;43967;51.634;5.566;2022-11-03T15:09:27;5.50;;;1.90;;
58152;SDS011;43967;51.634;5.566;2022-11-03T15:14:28;6.97;;;1.80;;
58152;SDS011;43967;51.634;5.566;2022-11-03T15:19:29;6.47;;;1.67;;
58152;SDS011;43967;51.634;5.566;2022-11-03T15:24:30;7.97;;;1.70;;
58152;SDS011;43967;51.634;5.566;2022-11-03T15:29:31;7.13;;;1.70;;
58152;SDS011;43967;51.634;5.566;2022-11-03T15:34:32;5.93;;;1.73;;
58152;SDS011;43967;51.634;5.566;2022-11-03T15:39:33;6.55;;;1.83;;
58152;SDS011;43967;51.634;5.566;2022-11-03T15:44:35;6.57;;;1.83;;
58152;SDS011;43967;51.634;5.566;2022-11-03T15:49:36;6.30;;;1.77;;
58152;SDS011;43967;51.634;5.566;2022-11-03T15:54:37;10.25;;;1.80;;
58152;SDS011;43967;51.634;5.566;2022-11-03T15:59:38;7.93;;;1.80;;
58152;SDS011;43967;51.634;5.566;2022-11-03T16:04:39;6.22;;;1.60;;
58152;SDS011;43967;51.634;5.566;2022-11-03T16:09:40;9.90;;;1.92;;
58152;SDS011;43967;51.634;5.566;2022-11-03T16:14:41;7.10;;;1.80;;
58152;SDS011;43967;51.634;5.566;2022-11-03T16:19:42;8.83;;;2.07;;
58152;SDS011;43967;51.634;5.566;2022-11-03T16:24:43;11.45;;;2.97;;
58152;SDS011;43967;51.634;5.566;2022-11-03T16:29:44;15.75;;;4.13;;
58152;SDS011;43967;51.634;5.566;2022-11-03T16:34:45;16.37;;;3.50;;
58152;SDS011;43967;51.634;5.566;2022-11-03T16:39:50;14.95;;;3.78;;
58152;SDS011;43967;51.634;5.566;2022-11-03T16:44:51;17.55;;;3.65;;
58152;SDS011;43967;51.634;5.566;2022-11-03T16:49:52;15.40;;;3.40;;
58152;SDS011;43967;51.634;5.566;2022-11-03T16:54:53;13.55;;;3.30;;
58152;SDS011;43967;51.634;5.566;2022-11-03T16:59:54;13.65;;;3.42;;
58152;SDS011;43967;51.634;5.566;2022-11-03T17:04:55;14.33;;;3.57;;
58152;SDS011;43967;51.634;5.566;2022-11-03T17:09:56;13.83;;;3.60;;
58152;SDS011;43967;51.634;5.566;2022-11-03T17:14:57;14.90;;;3.60;;
58152;SDS011;43967;51.634;5.566;2022-11-03T17:19:58;10.65;;;3.08;;
58152;SDS011;43967;51.634;5.566;2022-11-03T17:24:59;12.40;;;3.10;;
58152;SDS011;43967;51.634;5.566;2022-11-03T17:30:03;11.07;;;3.05;;
58152;SDS011;43967;51.634;5.566;2022-11-03T17:35:24;14.43;;;2.92;;
58152;SDS011;43967;51.634;5.566;2022-11-03T17:40:38;10.63;;;2.80;;
58152;SDS011;43967;51.634;5.566;2022-11-03T17:45:44;10.18;;;2.83;;
58152;SDS011;43967;51.634;5.566;2022-11-03T17:50:47;8.05;;;2.50;;
58152;SDS011;43967;51.634;5.566;2022-11-03T17:55:49;22.33;;;3.00;;
58152;SDS011;43967;51.634;5.566;2022-11-03T18:00:52;12.90;;;3.23;;
58152;SDS011;43967;51.634;5.566;2022-11-03T18:05:53;12.38;;;2.33;;
58152;SDS011;43967;51.634;5.566;2022-11-03T18:10:54;11.18;;;2.67;;
58152;SDS011;43967;51.634;5.566;2022-11-03T18:16:14;11.40;;;2.47;;
58152;SDS011;43967;51.634;5.566;2022-11-03T18:21:15;8.10;;;2.15;;
58152;SDS011;43967;51.634;5.566;2022-11-03T18:26:19;11.40;;;2.58;;
58152;SDS011;43967;51.634;5.566;2022-11-03T18:31:23;10.93;;;2.00;;
58152;SDS011;43967;51.634;5.566;2022-11-03T18:36:30;11.77;;;2.78;;
58152;SDS011;43967;51.634;5.566;2022-11-03T18:41:32;12.43;;;2.90;;
58152;SDS011;43967;51.634;5.566;2022-11-03T18:46:33;16.83;;;2.63;;
58152;SDS011;43967;51.634;5.566;2022-11-03T18:51:34;25.90;;;2.27;;
58152;SDS011;43967;51.634;5.566;2022-11-03T18:56:35;9.60;;;2.30;;
58152;SDS011;43967;51.634;5.566;2022-11-03T19:01:36;13.40;;;2.50;;
58152;SDS011;43967;51.634;5.566;2022-11-03T19:06:37;14.17;;;2.10;;
58152;SDS011;43967;51.634;5.566;2022-11-03T19:11:38;9.35;;;2.15;;
58152;SDS011;43967;51.634;5.566;2022-11-03T19:16:40;9.10;;;2.20;;
58152;SDS011;43967;51.634;5.566;2022-11-03T19:21:41;10.00;;;2.03;;
58152;SDS011;43967;51.634;5.566;2022-11-03T19:26:43;8.02;;;1.90;;
58152;SDS011;43967;51.634;5.566;2022-11-03T19:31:51;11.05;;;2.72;;
58152;SDS011;43967;51.634;5.566;2022-11-03T19:36:52;10.97;;;2.30;;
58152;SDS011;43967;51.634;5.566;2022-11-03T19:41:54;10.87;;;2.47;;
58152;SDS011;43967;51.634;5.566;2022-11-03T19:46:56;9.60;;;2.33;;
58152;SDS011;43967;51.634;5.566;2022-11-03T19:51:57;10.95;;;2.25;;
58152;SDS011;43967;51.634;5.566;2022-11-03T19:56:58;15.30;;;2.00;;
58152;SDS011;43967;51.634;5.566;2022-11-03T20:01:59;12.18;;;2.10;;
58152;SDS011;43967;51.634;5.566;2022-11-03T20:07:01;10.77;;;2.22;;
58152;SDS011;43967;51.634;5.566;2022-11-03T20:12:03;8.17;;;2.10;;
58152;SDS011;43967;51.634;5.566;2022-11-03T20:17:11;8.70;;;1.85;;
58152;SDS011;43967;51.634;5.566;2022-11-03T20:22:15;8.15;;;2.10;;
58152;SDS011;43967;51.634;5.566;2022-11-03T20:27:22;6.70;;;2.20;;
58152;SDS011;43967;51.634;5.566;2022-11-03T20:32:23;8.67;;;2.17;;
58152;SDS011;43967;51.634;5.566;2022-11-03T20:37:24;11.00;;;2.20;;
58152;SDS011;43967;51.634;5.566;2022-11-03T20:42:25;15.13;;;2.22;;
58152;SDS011;43967;51.634;5.566;2022-11-03T20:47:27;10.47;;;2.57;;
58152;SDS011;43967;51.634;5.566;2022-11-03T20:52:28;11.23;;;2.30;;
58152;SDS011;43967;51.634;5.566;2022-11-03T20:57:29;8.40;;;1.70;;
58152;SDS011;43967;51.634;5.566;2022-11-03T21:02:30;10.30;;;2.10;;
58152;SDS011;43967;51.634;5.566;2022-11-03T21:07:31;13.65;;;2.28;;
58152;SDS011;43967;51.634;5.566;2022-11-03T21:12:32;8.55;;;2.05;;
58152;SDS011;43967;51.634;5.566;2022-11-03T21:17:33;8.50;;;1.90;;
58152;SDS011;43967;51.634;5.566;2022-11-03T21:22:35;6.77;;;2.00;;
58152;SDS011;43967;51.634;5.566;2022-11-03T21:27:38;8.38;;;1.95;;
58152;SDS011;43967;51.634;5.566;2022-11-03T21:32:40;11.88;;;2.00;;
58152;SDS011;43967;51.634;5.566;2022-11-03T21:37:41;10.50;;;2.03;;
58152;SDS011;43967;51.634;5.566;2022-11-03T21:42:42;9.02;;;2.10;;
58152;SDS011;43967;51.634;5.566;2022-11-03T21:47:43;14.02;;;2.00;;
58152;SDS011;43967;51.634;5.566;2022-11-03T21:52:44;9.23;;;2.10;;
58152;SDS011;43967;51.634;5.566;2022-11-03T21:57:45;10.95;;;2.75;;
58152;SDS011;43967;51.634;5.566;2022-11-03T22:02:46;9.95;;;2.05;;
58152;SDS011;43967;51.634;5.566;2022-11-03T22:07:47;9.20;;;2.07;;
58152;SDS011;43967;51.634;5.566;2022-11-03T22:12:48;10.27;;;2.40;;
58152;SDS011;43967;51.634;5.566;2022-11-03T22:17:49;9.35;;;1.95;;
58152;SDS011;43967;51.634;5.566;2022-11-03T22:22:50;9.05;;;2.33;;
58152;SDS011;43967;51.634;5.566;2022-11-03T22:27:51;8.77;;;2.07;;
58152;SDS011;43967;51.634;5.566;2022-11-03T22:32:53;8.32;;;2.05;;
58152;SDS011;43967;51.634;5.566;2022-11-03T22:37:59;7.13;;;2.15;;
58152;SDS011;43967;51.634;5.566;2022-11-03T22:43:04;7.07;;;1.90;;
58152;SDS011;43967;51.634;5.566;2022-11-03T22:48:05;7.60;;;1.70;;
58152;SDS011;43967;51.634;5.566;2022-11-03T22:53:06;7.05;;;1.90;;
58152;SDS011;43967;51.634;5.566;2022-11-03T22:58:07;8.07;;;2.13;;
58152;SDS011;43967;51.634;5.566;2022-11-03T23:03:09;7.17;;;2.10;;
58152;SDS011;43967;51.634;5.566;2022-11-03T23:08:10;8.45;;;1.85;;
58152;SDS011;43967;51.634;5.566;2022-11-03T23:13:11;7.15;;;2.03;;
58152;SDS011;43967;51.634;5.566;2022-11-03T23:18:12;7.30;;;1.50;;
58152;SDS011;43967;51.634;5.566;2022-11-03T23:23:13;7.15;;;1.60;;
58152;SDS011;43967;51.634;5.566;2022-11-03T23:28:14;8.35;;;1.75;;
58152;SDS011;43967;51.634;5.566;2022-11-03T23:33:15;7.10;;;1.77;;
58152;SDS011;43967;51.634;5.566;2022-11-03T23:38:16;6.60;;;1.70;;
58152;SDS011;43967;51.634;5.566;2022-11-03T23:43:17;6.70;;;1.60;;
58152;SDS011;43967;51.634;5.566;2022-11-03T23:48:18;6.53;;;2.07;;
58152;SDS011;43967;51.634;5.566;2022-11-03T23:53:19;6.10;;;1.80;;
58152;SDS011;43967;51.634;5.566;2022-11-03T23:58:20;8.63;;;1.92;;
